sensor_id;sensor_type;location;lat;lon;timestamp;pressure;altitude;pressure_sealevel;temperature;humidity
77003;BME280;65939;50.060;14.288;2023-02-02T00:00:51;96943.38;;;1.24;91.35
77003;BME280;65939;50.060;14.288;2023-02-02T00:02:51;96943.16;;;1.27;90.97
77003;BME280;65939;50.060;14.288;2023-02-02T00:04:52;96949.13;;;1.27;91.30
77003;BME280;65939;50.060;14.288;2023-02-02T00:06:53;96942.94;;;1.30;91.18
77003;BME280;65939;50.060;14.288;2023-02-02T00:08:59;96941.09;;;1.32;91.40
77003;BME280;65939;50.060;14.288;2023-02-02T00:11:00;96946.00;;;1.35;91.39
77003;BME280;65939;50.060;14.288;2023-02-02T00:13:00;96936.56;;;1.35;90.77
77003;BME280;65939;50.060;14.288;2023-02-02T00:15:01;96937.38;;;1.36;90.59
77003;BME280;65939;50.060;14.288;2023-02-02T00:17:01;96934.69;;;1.37;91.17
77003;BME280;65939;50.060;14.288;2023-02-02T00:19:24;96938.91;;;1.38;90.98
77003;BME280;65939;50.060;14.288;2023-02-02T00:21:29;96942.19;;;1.40;90.73
77003;BME280;65939;50.060;14.288;2023-02-02T00:23:30;96956.69;;;1.41;90.55
77003;BME280;65939;50.060;14.288;2023-02-02T00:25:31;96952.38;;;1.42;89.95
77003;BME280;65939;50.060;14.288;2023-02-02T00:27:32;96957.50;;;1.42;90.13
77003;BME280;65939;50.060;14.288;2023-02-02T00:29:32;96948.06;;;1.42;89.98
77003;BME280;65939;50.060;14.288;2023-02-02T00:31:33;96956.59;;;1.43;90.08
77003;BME280;65939;50.060;14.288;2023-02-02T00:33:34;96956.69;;;1.41;90.05
77003;BME280;65939;50.060;14.288;2023-02-02T00:35:35;96945.50;;;1.42;89.46
77003;BME280;65939;50.060;14.288;2023-02-02T00:37:35;96956.59;;;1.43;89.65
77003;BME280;65939;50.060;14.288;2023-02-02T00:39:36;96959.19;;;1.43;89.26
77003;BME280;65939;50.060;14.288;2023-02-02T00:41:36;96960.00;;;1.43;89.08
77003;BME280;65939;50.060;14.288;2023-02-02T00:43:37;96965.13;;;1.43;88.74
77003;BME280;65939;50.060;14.288;2023-02-02T00:45:38;96962.56;;;1.43;88.77
77003;BME280;65939;50.060;14.288;2023-02-02T00:47:39;96945.38;;;1.44;88.47
77003;BME280;65939;50.060;14.288;2023-02-02T00:49:40;96963.25;;;1.46;88.95
77003;BME280;65939;50.060;14.288;2023-02-02T00:51:41;96970.06;;;1.47;88.61
77003;BME280;65939;50.060;14.288;2023-02-02T00:53:41;96966.69;;;1.46;88.33
77003;BME280;65939;50.060;14.288;2023-02-02T00:55:42;96957.22;;;1.47;89.17
77003;BME280;65939;50.060;14.288;2023-02-02T00:57:43;96956.28;;;1.48;88.89
77003;BME280;65939;50.060;14.288;2023-02-02T00:59:43;96964.00;;;1.48;88.92
77003;BME280;65939;50.060;14.288;2023-02-02T01:01:44;96960.47;;;1.49;88.20
77003;BME280;65939;50.060;14.288;2023-02-02T01:03:44;96965.53;;;1.50;88.44
77003;BME280;65939;50.060;14.288;2023-02-02T01:05:45;96974.06;;;1.51;87.90
77003;BME280;65939;50.060;14.288;2023-02-02T01:07:46;96964.38;;;1.54;87.92
77003;BME280;65939;50.060;14.288;2023-02-02T01:09:46;96964.19;;;1.57;87.89
77003;BME280;65939;50.060;14.288;2023-02-02T01:11:47;96965.81;;;1.58;88.03
77003;BME280;65939;50.060;14.288;2023-02-02T01:13:48;96961.41;;;1.60;88.40
77003;BME280;65939;50.060;14.288;2023-02-02T01:15:48;96964.66;;;1.62;87.71
77003;BME280;65939;50.060;14.288;2023-02-02T01:17:49;96963.72;;;1.63;87.85
77003;BME280;65939;50.060;14.288;2023-02-02T01:19:49;96966.91;;;1.67;87.67
77003;BME280;65939;50.060;14.288;2023-02-02T01:21:50;96966.81;;;1.68;88.51
77003;BME280;65939;50.060;14.288;2023-02-02T01:23:50;96968.34;;;1.71;88.35
77003;BME280;65939;50.060;14.288;2023-02-02T01:25:56;96963.91;;;1.73;88.20
77003;BME280;65939;50.060;14.288;2023-02-02T01:27:56;96975.84;;;1.74;88.02
77003;BME280;65939;50.060;14.288;2023-02-02T01:29:57;96973.97;;;1.76;87.44
77003;BME280;65939;50.060;14.288;2023-02-02T01:31:57;96967.91;;;1.77;nan
77003;BME280;65939;50.060;14.288;2023-02-02T01:33:58;96967.00;;;1.78;87.34
77003;BME280;65939;50.060;14.288;2023-02-02T01:36:06;96971.19;;;1.79;87.57
77003;BME280;65939;50.060;14.288;2023-02-02T01:38:07;96968.50;;;1.81;87.33
77003;BME280;65939;50.060;14.288;2023-02-02T01:40:08;96975.41;;;1.80;86.68
77003;BME280;65939;50.060;14.288;2023-02-02T01:42:14;96968.63;;;1.79;86.65
77003;BME280;65939;50.060;14.288;2023-02-02T01:46:54;96975.63;;;1.77;86.25
77003;BME280;65939;50.060;14.288;2023-02-02T01:49:03;96971.41;;;1.76;86.12
77003;BME280;65939;50.060;14.288;2023-02-02T01:51:10;96964.63;;;1.75;86.41
77003;BME280;65939;50.060;14.288;2023-02-02T01:53:13;96977.50;;;1.75;86.62
77003;BME280;65939;50.060;14.288;2023-02-02T01:55:17;96967.19;;;1.75;86.80
77003;BME280;65939;50.060;14.288;2023-02-02T01:57:43;96970.69;;;1.74;86.54
77003;BME280;65939;50.060;14.288;2023-02-02T01:59:46;96973.97;;;1.76;85.87
77003;BME280;65939;50.060;14.288;2023-02-02T02:01:51;96979.94;;;1.77;86.47
77003;BME280;65939;50.060;14.288;2023-02-02T02:03:55;96975.63;;;1.77;85.92
77003;BME280;65939;50.060;14.288;2023-02-02T02:06:00;96972.94;;;1.79;86.65
77003;BME280;65939;50.060;14.288;2023-02-02T02:08:16;96983.84;;;1.82;86.54
77003;BME280;65939;50.060;14.288;2023-02-02T02:10:18;96981.97;;;1.84;86.87
77003;BME280;65939;50.060;14.288;2023-02-02T02:12:18;96974.97;;;1.86;86.10
77003;BME280;65939;50.060;14.288;2023-02-02T02:14:20;96977.53;;;1.86;86.79
77003;BME280;65939;50.060;14.288;2023-02-02T02:19:57;96976.53;;;1.89;87.27
77003;BME280;65939;50.060;14.288;2023-02-02T02:28:21;96970.53;;;1.88;86.83
77003;BME280;65939;50.060;14.288;2023-02-02T02:32:58;96976.41;;;1.90;86.82
77003;BME280;65939;50.060;14.288;2023-02-02T02:40:04;96964.84;;;1.96;86.39
77003;BME280;65939;50.060;14.288;2023-02-02T02:42:11;96968.13;;;1.98;85.60
77003;BME280;65939;50.060;14.288;2023-02-02T02:44:16;96968.94;;;1.99;86.26
77003;BME280;65939;50.060;14.288;2023-02-02T02:46:19;96956.88;;;1.99;86.04
77003;BME280;65939;50.060;14.288;2023-02-02T02:48:21;96958.75;;;1.97;85.99
77003;BME280;65939;50.060;14.288;2023-02-02T02:50:22;96963.19;;;1.95;85.01
77003;BME280;65939;50.060;14.288;2023-02-02T02:52:22;96966.81;;;1.92;84.62
77003;BME280;65939;50.060;14.288;2023-02-02T02:54:30;96964.56;;;1.88;85.05
77003;BME280;65939;50.060;14.288;2023-02-02T02:56:42;96964.78;;;1.85;84.97
77003;BME280;65939;50.060;14.288;2023-02-02T02:58:57;96962.44;;;1.82;83.97
77003;BME280;65939;50.060;14.288;2023-02-02T03:01:06;96961.84;;;1.78;84.01
77003;BME280;65939;50.060;14.288;2023-02-02T03:05:40;96962.28;;;1.72;84.28
77003;BME280;65939;50.060;14.288;2023-02-02T03:07:56;96956.53;;;1.68;84.15
77003;BME280;65939;50.060;14.288;2023-02-02T03:10:05;96953.22;;;1.66;84.90
77003;BME280;65939;50.060;14.288;2023-02-02T03:12:07;96949.13;;;1.64;84.29
77003;BME280;65939;50.060;14.288;2023-02-02T03:14:08;96948.28;;;1.63;84.29
77003;BME280;65939;50.060;14.288;2023-02-02T03:16:10;96944.19;;;1.61;84.46
77003;BME280;65939;50.060;14.288;2023-02-02T03:18:13;96947.69;;;1.60;83.97
77003;BME280;65939;50.060;14.288;2023-02-02T03:20:15;96956.34;;;1.59;84.11
77003;BME280;65939;50.060;14.288;2023-02-02T03:22:16;96948.75;;;1.57;84.61
77003;BME280;65939;50.060;14.288;2023-02-02T03:24:16;96950.50;;;1.57;84.49
77003;BME280;65939;50.060;14.288;2023-02-02T03:26:17;96954.91;;;1.55;83.72
77003;BME280;65939;50.060;14.288;2023-02-02T03:28:18;96956.75;;;1.53;83.59
77003;BME280;65939;50.060;14.288;2023-02-02T03:30:19;96958.63;;;1.51;83.91
77003;BME280;65939;50.060;14.288;2023-02-02T03:32:20;96960.47;;;1.49;83.28
77003;BME280;65939;50.060;14.288;2023-02-02T03:34:21;96957.22;;;1.47;83.70
77003;BME280;65939;50.060;14.288;2023-02-02T03:36:21;96972.75;;;1.45;83.68
77003;BME280;65939;50.060;14.288;2023-02-02T03:38:22;96965.84;;;1.46;83.38
77003;BME280;65939;50.060;14.288;2023-02-02T03:40:23;96965.84;;;1.46;83.34
77003;BME280;65939;50.060;14.288;2023-02-02T03:42:23;96967.50;;;1.47;83.70
77003;BME280;65939;50.060;14.288;2023-02-02T03:44:24;96963.25;;;1.46;83.42
77003;BME280;65939;50.060;14.288;2023-02-02T03:46:24;96973.56;;;1.46;83.87
77003;BME280;65939;50.060;14.288;2023-02-02T03:48:26;96963.25;;;1.46;83.29
77003;BME280;65939;50.060;14.288;2023-02-02T03:50:27;96961.75;;;1.43;83.26
77003;BME280;65939;50.060;14.288;2023-02-02T03:52:27;96965.22;;;1.42;83.33
77003;BME280;65939;50.060;14.288;2023-02-02T03:54:28;96967.09;;;1.40;83.09
77003;BME280;65939;50.060;14.288;2023-02-02T03:56:28;96973.88;;;1.41;83.12
77003;BME280;65939;50.060;14.288;2023-02-02T03:58:29;96966.97;;;1.41;83.13
77003;BME280;65939;50.060;14.288;2023-02-02T04:00:30;96967.81;;;1.42;83.52
77003;BME280;65939;50.060;14.288;2023-02-02T04:02:30;96976.25;;;1.44;83.82
77003;BME280;65939;50.060;14.288;2023-02-02T04:04:31;96975.22;;;1.47;83.38
77003;BME280;65939;50.060;14.288;2023-02-02T04:06:31;96977.59;;;1.50;83.64
77003;BME280;65939;50.060;14.288;2023-02-02T04:08:32;96982.41;;;1.54;83.20
77003;BME280;65939;50.060;14.288;2023-02-02T04:10:33;96983.00;;;1.58;83.95
77003;BME280;65939;50.060;14.288;2023-02-02T04:12:33;96975.88;;;1.61;83.43
77003;BME280;65939;50.060;14.288;2023-02-02T04:14:34;96980.00;;;1.64;83.71
77003;BME280;65939;50.060;14.288;2023-02-02T04:16:35;96978.94;;;1.66;83.91
77003;BME280;65939;50.060;14.288;2023-02-02T04:18:37;96978.75;;;1.70;83.45
77003;BME280;65939;50.060;14.288;2023-02-02T04:20:37;96982.84;;;1.72;84.00
77003;BME280;65939;50.060;14.288;2023-02-02T04:22:38;96988.69;;;1.74;83.09
77003;BME280;65939;50.060;14.288;2023-02-02T04:24:39;96980.88;;;1.76;83.21
77003;BME280;65939;50.060;14.288;2023-02-02T04:26:40;96987.78;;;1.75;83.31
77003;BME280;65939;50.060;14.288;2023-02-02T04:28:41;96990.25;;;1.77;83.76
77003;BME280;65939;50.060;14.288;2023-02-02T04:30:42;96992.72;;;1.78;83.52
77003;BME280;65939;50.060;14.288;2023-02-02T04:32:42;96993.41;;;1.80;83.68
77003;BME280;65939;50.060;14.288;2023-02-02T04:34:43;96993.41;;;1.80;83.08
77003;BME280;65939;50.060;14.288;2023-02-02T04:36:44;97001.13;;;1.80;83.21
77003;BME280;65939;50.060;14.288;2023-02-02T04:38:48;96998.56;;;1.80;83.22
77003;BME280;65939;50.060;14.288;2023-02-02T04:40:49;96998.34;;;1.83;83.00
77003;BME280;65939;50.060;14.288;2023-02-02T04:42:49;96996.50;;;1.85;83.14
77003;BME280;65939;50.060;14.288;2023-02-02T04:44:50;96990.41;;;1.86;82.75
77003;BME280;65939;50.060;14.288;2023-02-02T04:46:50;97005.75;;;1.88;82.62
77003;BME280;65939;50.060;14.288;2023-02-02T04:48:51;97006.56;;;1.88;83.04
77003;BME280;65939;50.060;14.288;2023-02-02T04:51:00;97011.69;;;1.88;82.29
77003;BME280;65939;50.060;14.288;2023-02-02T04:53:03;97021.91;;;1.90;82.53
77003;BME280;65939;50.060;14.288;2023-02-02T04:55:04;97020.88;;;1.92;82.11
77003;BME280;65939;50.060;14.288;2023-02-02T04:57:05;97024.16;;;1.95;82.24
77003;BME280;65939;50.060;14.288;2023-02-02T04:59:05;97021.47;;;1.96;82.44
77003;BME280;65939;50.060;14.288;2023-02-02T05:01:15;97024.88;;;1.97;81.86
77003;BME280;65939;50.060;14.288;2023-02-02T05:03:16;97026.50;;;1.98;81.71
77003;BME280;65939;50.060;14.288;2023-02-02T05:05:16;97028.06;;;2.00;81.68
77003;BME280;65939;50.060;14.288;2023-02-02T05:07:17;97032.25;;;2.01;82.38
77003;BME280;65939;50.060;14.288;2023-02-02T05:09:18;97036.47;;;2.02;81.57
77003;BME280;65939;50.060;14.288;2023-02-02T05:11:20;97035.66;;;2.02;81.79
77003;BME280;65939;50.060;14.288;2023-02-02T05:13:22;97037.28;;;2.03;81.28
77003;BME280;65939;50.060;14.288;2023-02-02T05:15:22;97039.88;;;2.03;81.42
77003;BME280;65939;50.060;14.288;2023-02-02T05:17:23;97044.09;;;2.04;81.21
77003;BME280;65939;50.060;14.288;2023-02-02T05:19:23;97044.19;;;2.02;81.11
77003;BME280;65939;50.060;14.288;2023-02-02T05:21:24;97051.09;;;2.02;81.25
77003;BME280;65939;50.060;14.288;2023-02-02T05:23:25;97054.50;;;2.02;80.87
77003;BME280;65939;50.060;14.288;2023-02-02T05:25:25;97051.09;;;2.02;81.19
77003;BME280;65939;50.060;14.288;2023-02-02T05:27:26;97056.25;;;2.02;81.60
77003;BME280;65939;50.060;14.288;2023-02-02T05:29:27;97057.06;;;2.02;81.19
77003;BME280;65939;50.060;14.288;2023-02-02T05:31:28;97046.78;;;2.02;81.59
77003;BME280;65939;50.060;14.288;2023-02-02T05:33:30;97051.84;;;2.04;81.21
77003;BME280;65939;50.060;14.288;2023-02-02T05:35:31;97064.78;;;2.02;81.19
77003;BME280;65939;50.060;14.288;2023-02-02T05:37:32;97055.31;;;2.03;81.29
77003;BME280;65939;50.060;14.288;2023-02-02T05:39:32;97069.03;;;2.03;81.37
77003;BME280;65939;50.060;14.288;2023-02-02T05:41:33;97080.16;;;2.04;81.10
77003;BME280;65939;50.060;14.288;2023-02-02T05:43:33;97073.34;;;2.03;80.81
77003;BME280;65939;50.060;14.288;2023-02-02T05:45:34;97071.59;;;2.03;81.22
77003;BME280;65939;50.060;14.288;2023-02-02T05:47:35;97079.22;;;2.05;81.27
77003;BME280;65939;50.060;14.288;2023-02-02T05:49:35;97073.13;;;2.06;81.01
77003;BME280;65939;50.060;14.288;2023-02-02T05:51:41;97080.03;;;2.05;81.48
77003;BME280;65939;50.060;14.288;2023-02-02T05:53:44;97084.25;;;2.06;81.02
77003;BME280;65939;50.060;14.288;2023-02-02T05:55:44;97079.94;;;2.07;81.66
77003;BME280;65939;50.060;14.288;2023-02-02T05:57:45;97087.53;;;2.08;81.72
77003;BME280;65939;50.060;14.288;2023-02-02T05:59:46;97090.94;;;2.09;80.99
77003;BME280;65939;50.060;14.288;2023-02-02T06:01:47;97090.94;;;2.09;81.61
77003;BME280;65939;50.060;14.288;2023-02-02T06:03:48;97086.59;;;2.09;81.26
77003;BME280;65939;50.060;14.288;2023-02-02T06:05:48;97096.91;;;2.09;81.51
77003;BME280;65939;50.060;14.288;2023-02-02T06:07:49;97089.09;;;2.11;81.15
77003;BME280;65939;50.060;14.288;2023-02-02T06:09:49;97089.09;;;2.11;81.27
77003;BME280;65939;50.060;14.288;2023-02-02T06:11:50;97101.97;;;2.11;80.95
77003;BME280;65939;50.060;14.288;2023-02-02T06:13:50;97103.50;;;2.13;81.15
77003;BME280;65939;50.060;14.288;2023-02-02T06:15:51;97109.47;;;2.14;81.32
77003;BME280;65939;50.060;14.288;2023-02-02T06:17:52;97102.66;;;2.13;81.22
77003;BME280;65939;50.060;14.288;2023-02-02T06:19:52;97098.34;;;2.13;81.19
77003;BME280;65939;50.060;14.288;2023-02-02T06:21:53;97110.38;;;2.13;81.91
77003;BME280;65939;50.060;14.288;2023-02-02T06:23:53;97113.81;;;2.13;81.55
77003;BME280;65939;50.060;14.288;2023-02-02T06:25:54;97119.06;;;2.12;81.67
77003;BME280;65939;50.060;14.288;2023-02-02T06:27:59;97112.25;;;2.11;81.15
77003;BME280;65939;50.060;14.288;2023-02-02T06:30:00;97109.56;;;2.12;81.63
77003;BME280;65939;50.060;14.288;2023-02-02T06:32:00;97112.06;;;2.14;81.75
77003;BME280;65939;50.060;14.288;2023-02-02T06:34:01;97120.47;;;2.16;81.50
77003;BME280;65939;50.060;14.288;2023-02-02T06:36:04;97124.72;;;2.17;81.16
77003;BME280;65939;50.060;14.288;2023-02-02T06:38:05;97125.41;;;2.19;81.26
77003;BME280;65939;50.060;14.288;2023-02-02T06:40:06;97124.38;;;2.22;81.58
77003;BME280;65939;50.060;14.288;2023-02-02T06:42:07;97126.84;;;2.23;81.23
77003;BME280;65939;50.060;14.288;2023-02-02T06:44:07;97119.94;;;2.24;81.17
77003;BME280;65939;50.060;14.288;2023-02-02T06:46:08;97126.75;;;2.25;81.33
77003;BME280;65939;50.060;14.288;2023-02-02T06:48:09;97136.13;;;2.26;82.14
77003;BME280;65939;50.060;14.288;2023-02-02T06:50:13;97141.16;;;2.27;81.57
77003;BME280;65939;50.060;14.288;2023-02-02T06:52:13;97137.75;;;2.27;81.70
77003;BME280;65939;50.060;14.288;2023-02-02T06:54:14;97132.38;;;2.30;82.12
77003;BME280;65939;50.060;14.288;2023-02-02T06:56:15;97140.03;;;2.31;82.23
77003;BME280;65939;50.060;14.288;2023-02-02T06:58:15;97151.97;;;2.32;81.31
77003;BME280;65939;50.060;14.288;2023-02-02T07:00:16;97141.66;;;2.32;82.11
77003;BME280;65939;50.060;14.288;2023-02-02T07:02:17;97148.34;;;2.35;82.19
77003;BME280;65939;50.060;14.288;2023-02-02T07:04:18;97152.56;;;2.36;81.76
77003;BME280;65939;50.060;14.288;2023-02-02T07:06:22;97149.06;;;2.37;82.24
77003;BME280;65939;50.060;14.288;2023-02-02T07:08:23;97149.88;;;2.37;81.41
77003;BME280;65939;50.060;14.288;2023-02-02T07:10:23;97151.53;;;2.38;81.69
77003;BME280;65939;50.060;14.288;2023-02-02T07:12:24;97153.19;;;2.39;81.21
77003;BME280;65939;50.060;14.288;2023-02-02T07:14:26;97161.59;;;2.42;81.76
77003;BME280;65939;50.060;14.288;2023-02-02T07:16:26;97164.09;;;2.43;81.45
77003;BME280;65939;50.060;14.288;2023-02-02T07:18:27;97163.28;;;2.43;81.17
77003;BME280;65939;50.060;14.288;2023-02-02T07:20:28;97161.59;;;2.42;81.79
77003;BME280;65939;50.060;14.288;2023-02-02T07:22:28;97170.06;;;2.44;81.90
77003;BME280;65939;50.060;14.288;2023-02-02T07:24:29;97176.03;;;2.44;81.68
77003;BME280;65939;50.060;14.288;2023-02-02T07:26:29;97174.19;;;2.46;81.56
77003;BME280;65939;50.060;14.288;2023-02-02T07:28:30;97175.69;;;2.49;81.13
77003;BME280;65939;50.060;14.288;2023-02-02T07:30:31;97176.22;;;2.54;82.05
77003;BME280;65939;50.060;14.288;2023-02-02T07:32:32;97175.06;;;2.58;81.18
77003;BME280;65939;50.060;14.288;2023-02-02T07:34:37;97169.69;;;2.61;81.51
77003;BME280;65939;50.060;14.288;2023-02-02T07:36:37;97184.00;;;2.65;81.34
77003;BME280;65939;50.060;14.288;2023-02-02T07:38:38;97173.47;;;2.68;80.86
77003;BME280;65939;50.060;14.288;2023-02-02T07:40:38;97185.00;;;2.75;81.25
77003;BME280;65939;50.060;14.288;2023-02-02T07:42:39;97182.19;;;2.78;80.56
77003;BME280;65939;50.060;14.288;2023-02-02T07:44:39;97183.97;;;2.78;79.91
77003;BME280;65939;50.060;14.288;2023-02-02T07:46:42;97169.31;;;2.78;79.73
77003;BME280;65939;50.060;14.288;2023-02-02T07:48:42;97186.91;;;2.84;79.95
77003;BME280;65939;50.060;14.288;2023-02-02T07:50:43;97178.03;;;2.88;79.67
77003;BME280;65939;50.060;14.288;2023-02-02T07:52:44;97186.25;;;2.94;79.65
77003;BME280;65939;50.060;14.288;2023-02-02T07:54:44;97192.13;;;2.96;79.69
77003;BME280;65939;50.060;14.288;2023-02-02T07:56:45;97191.06;;;2.98;80.15
77003;BME280;65939;50.060;14.288;2023-02-02T07:58:46;97193.56;;;3.00;79.70
77003;BME280;65939;50.060;14.288;2023-02-02T08:00:47;97196.81;;;3.02;80.25
77003;BME280;65939;50.060;14.288;2023-02-02T08:02:48;97203.41;;;3.06;79.93
77003;BME280;65939;50.060;14.288;2023-02-02T08:04:48;97198.50;;;3.03;79.43
77003;BME280;65939;50.060;14.288;2023-02-02T08:06:49;97206.09;;;3.04;78.95
77003;BME280;65939;50.060;14.288;2023-02-02T08:08:50;97204.25;;;3.06;79.43
77003;BME280;65939;50.060;14.288;2023-02-02T08:10:52;97207.75;;;3.05;79.27
77003;BME280;65939;50.060;14.288;2023-02-02T08:12:53;97204.56;;;3.02;79.12
77003;BME280;65939;50.060;14.288;2023-02-02T08:14:54;97208.81;;;3.03;79.38
77003;BME280;65939;50.060;14.288;2023-02-02T08:16:54;97212.09;;;3.05;78.91
77003;BME280;65939;50.060;14.288;2023-02-02T08:18:56;97211.88;;;3.08;79.28
77003;BME280;65939;50.060;14.288;2023-02-02T08:20:58;97217.03;;;3.08;79.30
77003;BME280;65939;50.060;14.288;2023-02-02T08:22:58;97206.47;;;3.11;79.36
77003;BME280;65939;50.060;14.288;2023-02-02T08:24:59;97218.66;;;3.09;78.77
77003;BME280;65939;50.060;14.288;2023-02-02T08:26:59;97226.41;;;3.09;78.80
77003;BME280;65939;50.060;14.288;2023-02-02T08:29:05;97229.44;;;3.03;79.07
77003;BME280;65939;50.060;14.288;2023-02-02T08:31:17;97226.13;;;3.01;78.95
77003;BME280;65939;50.060;14.288;2023-02-02T08:33:18;97222.75;;;3.00;79.05
77003;BME280;65939;50.060;14.288;2023-02-02T08:35:18;97233.16;;;2.99;79.28
77003;BME280;65939;50.060;14.288;2023-02-02T08:37:19;97246.16;;;2.97;78.87
77003;BME280;65939;50.060;14.288;2023-02-02T08:39:19;97243.59;;;2.97;79.34
77003;BME280;65939;50.060;14.288;2023-02-02T08:41:22;97234.09;;;2.98;79.38
77003;BME280;65939;50.060;14.288;2023-02-02T08:43:23;97241.59;;;3.01;79.08
77003;BME280;65939;50.060;14.288;2023-02-02T08:45:24;97253.47;;;3.03;79.11
77003;BME280;65939;50.060;14.288;2023-02-02T08:47:28;97243.03;;;3.05;79.40
77003;BME280;65939;50.060;14.288;2023-02-02T08:49:28;97245.59;;;3.05;78.92
77003;BME280;65939;50.060;14.288;2023-02-02T08:51:29;97239.75;;;3.03;79.06
77003;BME280;65939;50.060;14.288;2023-02-02T08:53:30;97251.91;;;3.01;78.90
77003;BME280;65939;50.060;14.288;2023-02-02T08:55:31;97243.47;;;2.99;78.44
77003;BME280;65939;50.060;14.288;2023-02-02T08:57:31;97252.75;;;3.01;78.60
77003;BME280;65939;50.060;14.288;2023-02-02T08:59:33;97248.41;;;3.02;78.58
77003;BME280;65939;50.060;14.288;2023-02-02T09:01:35;97246.97;;;2.98;78.65
77003;BME280;65939;50.060;14.288;2023-02-02T09:03:35;97249.56;;;2.98;78.96
77003;BME280;65939;50.060;14.288;2023-02-02T09:05:39;97252.13;;;2.98;78.89
77003;BME280;65939;50.060;14.288;2023-02-02T09:07:39;97249.69;;;2.96;78.56
77003;BME280;65939;50.060;14.288;2023-02-02T09:09:40;97248.63;;;2.99;79.29
77003;BME280;65939;50.060;14.288;2023-02-02T09:11:41;97252.88;;;3.00;79.14
77003;BME280;65939;50.060;14.288;2023-02-02T09:13:44;97251.91;;;3.01;78.44
77003;BME280;65939;50.060;14.288;2023-02-02T09:15:45;97249.00;;;3.05;79.02
77003;BME280;65939;50.060;14.288;2023-02-02T09:17:45;97251.59;;;3.05;78.73
77003;BME280;65939;50.060;14.288;2023-02-02T09:19:46;97258.50;;;3.05;78.18
77003;BME280;65939;50.060;14.288;2023-02-02T09:21:51;97264.47;;;3.05;78.94
77003;BME280;65939;50.060;14.288;2023-02-02T09:23:52;97259.53;;;3.02;78.55
77003;BME280;65939;50.060;14.288;2023-02-02T09:25:53;97260.47;;;3.01;79.42
77003;BME280;65939;50.060;14.288;2023-02-02T09:27:54;97267.28;;;3.02;79.36
77003;BME280;65939;50.060;14.288;2023-02-02T09:29:54;97262.97;;;3.03;79.17
77003;BME280;65939;50.060;14.288;2023-02-02T09:31:55;97263.88;;;3.02;78.86
77003;BME280;65939;50.060;14.288;2023-02-02T09:34:00;97267.28;;;3.02;78.91
77003;BME280;65939;50.060;14.288;2023-02-02T09:36:21;97272.34;;;3.04;79.13
77003;BME280;65939;50.060;14.288;2023-02-02T09:38:22;97272.13;;;3.07;79.02
77003;BME280;65939;50.060;14.288;2023-02-02T09:40:23;97279.66;;;3.10;79.51
77003;BME280;65939;50.060;14.288;2023-02-02T09:42:55;97285.41;;;3.14;79.20
77003;BME280;65939;50.060;14.288;2023-02-02T09:45:07;97289.63;;;3.15;78.96
77003;BME280;65939;50.060;14.288;2023-02-02T09:47:23;97282.72;;;3.15;79.16
77003;BME280;65939;50.060;14.288;2023-02-02T09:51:56;97292.47;;;3.23;78.17
77003;BME280;65939;50.060;14.288;2023-02-02T09:54:06;97299.31;;;3.24;78.15
77003;BME280;65939;50.060;14.288;2023-02-02T09:56:23;97298.25;;;3.26;79.30
77003;BME280;65939;50.060;14.288;2023-02-02T09:58:35;97299.91;;;3.27;77.81
77003;BME280;65939;50.060;14.288;2023-02-02T10:03:17;97309.75;;;3.33;78.20
77003;BME280;65939;50.060;14.288;2023-02-02T10:05:27;97306.97;;;3.36;78.14
77003;BME280;65939;50.060;14.288;2023-02-02T10:07:37;97299.00;;;3.40;77.68
77003;BME280;65939;50.060;14.288;2023-02-02T10:09:43;97309.22;;;3.41;77.98
77003;BME280;65939;50.060;14.288;2023-02-02T10:14:39;97300.66;;;3.41;78.06
77003;BME280;65939;50.060;14.288;2023-02-02T10:16:42;97302.91;;;3.45;78.36
77003;BME280;65939;50.060;14.288;2023-02-02T10:18:50;97290.72;;;3.47;78.26
77003;BME280;65939;50.060;14.288;2023-02-02T10:20:58;97300.38;;;3.56;77.78
77003;BME280;65939;50.060;14.288;2023-02-02T10:23:22;97302.50;;;3.63;78.10
77003;BME280;65939;50.060;14.288;2023-02-02T10:25:28;97298.66;;;3.68;77.42
77003;BME280;65939;50.060;14.288;2023-02-02T10:30:19;97299.13;;;3.73;77.29
77003;BME280;65939;50.060;14.288;2023-02-02T10:32:33;97303.47;;;3.73;76.97
77003;BME280;65939;50.060;14.288;2023-02-02T10:39:45;97295.44;;;3.89;76.62
77003;BME280;65939;50.060;14.288;2023-02-02T10:46:16;97295.09;;;4.04;76.05
77003;BME280;65939;50.060;14.288;2023-02-02T10:48:22;97307.22;;;4.15;76.01
77003;BME280;65939;50.060;14.288;2023-02-02T10:50:28;97293.13;;;4.19;75.12
77003;BME280;65939;50.060;14.288;2023-02-02T10:52:32;97312.50;;;4.25;74.86
77003;BME280;65939;50.060;14.288;2023-02-02T10:56:59;97298.53;;;4.27;74.42
77003;BME280;65939;50.060;14.288;2023-02-02T10:59:10;97303.81;;;4.26;74.45
77003;BME280;65939;50.060;14.288;2023-02-02T11:01:13;97307.22;;;4.26;74.12
77003;BME280;65939;50.060;14.288;2023-02-02T11:03:20;97295.16;;;4.27;73.72
77003;BME280;65939;50.060;14.288;2023-02-02T11:05:27;97295.16;;;4.27;73.03
77003;BME280;65939;50.060;14.288;2023-02-02T11:07:48;97306.16;;;4.29;72.91
77003;BME280;65939;50.060;14.288;2023-02-02T11:09:49;97305.81;;;4.33;72.66
77003;BME280;65939;50.060;14.288;2023-02-02T11:11:54;97299.25;;;4.41;72.69
77003;BME280;65939;50.060;14.288;2023-02-02T11:18:28;97307.03;;;4.52;72.78
77003;BME280;65939;50.060;14.288;2023-02-02T11:20:32;97303.72;;;4.50;71.93
77003;BME280;65939;50.060;14.288;2023-02-02T11:22:36;97301.50;;;4.45;72.03
77003;BME280;65939;50.060;14.288;2023-02-02T11:24:46;97303.50;;;4.42;72.11
77003;BME280;65939;50.060;14.288;2023-02-02T11:31:40;97309.47;;;4.53;70.94
77003;BME280;65939;50.060;14.288;2023-02-02T11:33:40;97307.94;;;4.51;71.20
77003;BME280;65939;50.060;14.288;2023-02-02T11:35:53;97302.19;;;4.47;71.01
77003;BME280;65939;50.060;14.288;2023-02-02T11:37:58;97302.41;;;4.44;71.18
77003;BME280;65939;50.060;14.288;2023-02-02T11:42:27;97295.50;;;4.45;70.55
77003;BME280;65939;50.060;14.288;2023-02-02T11:44:29;97302.09;;;4.49;70.53
77003;BME280;65939;50.060;14.288;2023-02-02T11:46:37;97300.44;;;4.59;70.95